Time;durP1;ratioP1;P1;durP2;ratioP2;P2;SDS_P1;SDS_P2;PMS_P1;PMS_P2;Temp;Humidity;BMP_temperature;BMP_pressure;BME280_temperature;BME280_humidity;BME280_pressure;Samples;Min_cycle;Max_cycle;Signal;HPM_P1;HPM_P2
2024/02/14 00:02:25;;;;;;;32.58;6.20;;;11.50;99.90;;;;;;5072282;28;20044;-62
2024/02/14 00:04:53;;;;;;;38.60;7.40;;;11.50;99.90;;;;;;5087144;28;20055;-62
2024/02/14 00:07:20;;;;;;;36.30;6.05;;;11.60;99.90;;;;;;5099074;28;20480;-63
2024/02/14 00:09:48;;;;;;;52.40;8.55;;;11.60;99.90;;;;;;5099856;28;20152;-62
2024/02/14 00:12:14;;;;;;;43.90;6.07;;;11.60;99.90;;;;;;5100605;28;20597;-65
2024/02/14 00:14:42;;;;;;;24.58;5.18;;;11.60;99.90;;;;;;5100676;28;20105;-62
2024/02/14 00:17:10;;;;;;;28.45;5.22;;;11.60;99.90;;;;;;5095717;28;20040;-64
2024/02/14 00:19:37;;;;;;;25.92;4.47;;;11.60;99.90;;;;;;5100124;28;20500;-62
2024/02/14 00:22:04;;;;;;;30.80;5.40;;;11.60;99.90;;;;;;5099520;28;20055;-62
2024/02/14 00:24:32;;;;;;;36.25;5.57;;;11.60;99.90;;;;;;5100677;28;20343;-62
2024/02/14 00:27:00;;;;;;;32.35;4.72;;;11.60;99.90;;;;;;5098990;28;20384;-62
2024/02/14 00:29:27;;;;;;;34.05;4.60;;;11.50;99.90;;;;;;5100465;28;20052;-62
2024/02/14 00:31:54;;;;;;;32.75;5.72;;;11.60;99.90;;;;;;5105756;28;20050;-62
2024/02/14 00:34:21;;;;;;;31.35;7.43;;;11.60;99.90;;;;;;5102202;28;20063;-62
2024/02/14 00:36:48;;;;;;;26.52;5.20;;;11.50;99.90;;;;;;5102874;28;20514;-62
2024/02/14 00:39:15;;;;;;;25.25;3.40;;;11.60;99.90;;;;;;5107027;28;20071;-63
2024/02/14 00:41:41;;;;;;;23.90;3.92;;;11.60;99.90;;;;;;5100470;28;20048;-63
2024/02/14 00:44:08;;;;;;;21.83;3.97;;;11.60;99.90;;;;;;5102384;28;20039;-62
2024/02/14 00:46:35;;;;;;;19.80;4.53;;;11.70;99.90;;;;;;5098149;28;20056;-63
2024/02/14 00:49:02;;;;;;;30.35;5.05;;;11.70;99.90;;;;;;5106366;28;20133;-63
2024/02/14 00:51:29;;;;;;;18.50;4.28;;;11.70;99.90;;;;;;5100732;28;20097;-63
2024/02/14 00:53:56;;;;;;;21.60;3.60;;;11.70;99.90;;;;;;5093749;28;20177;-63
2024/02/14 00:56:23;;;;;;;23.27;4.78;;;11.70;99.90;;;;;;5092994;28;20043;-63
2024/02/14 00:58:50;;;;;;;24.80;5.63;;;11.70;99.90;;;;;;5100860;28;20334;-64
2024/02/14 01:01:17;;;;;;;11.98;2.50;;;11.70;99.90;;;;;;5099725;28;20048;-64
2024/02/14 01:03:44;;;;;;;15.20;2.67;;;11.70;99.90;;;;;;5096721;28;20044;-63
2024/02/14 01:06:11;;;;;;;15.85;3.50;;;11.70;99.90;;;;;;5103657;28;20043;-63
2024/02/14 01:08:38;;;;;;;19.70;4.32;;;11.80;99.90;;;;;;5104897;27;20047;-63
2024/02/14 01:11:05;;;;;;;16.13;2.85;;;11.80;99.90;;;;;;5104845;28;20075;-63
2024/02/14 01:13:31;;;;;;;12.68;2.72;;;11.70;99.90;;;;;;5103639;28;20039;-63
2024/02/14 01:15:58;;;;;;;16.92;3.28;;;11.70;99.90;;;;;;5099798;28;20075;-63
2024/02/14 01:18:25;;;;;;;21.42;2.78;;;11.70;99.90;;;;;;5097279;28;20126;-63
2024/02/14 01:20:53;;;;;;;13.55;2.67;;;11.70;99.90;;;;;;5091777;28;20060;-63
2024/02/14 01:23:20;;;;;;;20.75;5.90;;;11.80;99.90;;;;;;5099415;28;20441;-63
2024/02/14 01:25:47;;;;;;;17.10;3.53;;;11.80;99.90;;;;;;5102545;28;20085;-63
2024/02/14 01:28:14;;;;;;;15.90;2.60;;;11.80;99.90;;;;;;5100285;28;20046;-63
2024/02/14 01:30:41;;;;;;;14.32;2.67;;;11.80;99.90;;;;;;5107303;28;20043;-64
2024/02/14 01:33:08;;;;;;;16.48;3.08;;;11.80;99.90;;;;;;5096835;28;20117;-63
2024/02/14 01:35:35;;;;;;;17.48;3.45;;;11.80;99.90;;;;;;5108095;28;20052;-63
2024/02/14 01:38:02;;;;;;;17.73;2.30;;;11.80;99.90;;;;;;5097608;28;20078;-64
2024/02/14 01:40:29;;;;;;;13.23;2.47;;;11.70;99.90;;;;;;5100147;28;20428;-63
2024/02/14 01:42:56;;;;;;;13.13;2.08;;;11.70;99.90;;;;;;5092686;28;20484;-63
2024/02/14 01:45:23;;;;;;;14.18;2.70;;;11.70;99.90;;;;;;5100307;28;20109;-64
2024/02/14 01:47:50;;;;;;;14.57;2.50;;;11.70;99.90;;;;;;5102172;28;20047;-64
2024/02/14 01:50:18;;;;;;;14.25;2.90;;;11.70;99.90;;;;;;5096625;28;20514;-62
2024/02/14 01:52:45;;;;;;;18.40;3.75;;;11.70;99.90;;;;;;5094239;28;20039;-65
2024/02/14 01:55:12;;;;;;;16.58;3.00;;;11.60;99.90;;;;;;5100591;28;20047;-62
2024/02/14 01:57:39;;;;;;;15.93;3.92;;;11.60;99.90;;;;;;5101627;28;20456;-62
2024/02/14 02:00:15;;;;;;;12.88;2.35;;;11.60;99.90;;;;;;5097886;28;20108;-63
2024/02/14 02:02:43;;;;;;;17.08;2.83;;;11.60;99.90;;;;;;5104613;28;20086;-63
2024/02/14 02:05:10;;;;;;;16.27;3.42;;;11.60;99.90;;;;;;5092949;28;20075;-62
2024/02/14 02:07:39;;;;;;;16.38;2.63;;;11.60;99.90;;;;;;5101394;28;20535;-62
2024/02/14 02:10:07;;;;;;;23.02;3.38;;;11.60;99.90;;;;;;5098716;28;20113;-62
2024/02/14 02:12:33;;;;;;;10.60;2.40;;;11.50;99.90;;;;;;5103517;28;20091;-62
2024/02/14 02:15:00;;;;;;;18.27;3.25;;;11.60;99.90;;;;;;5099482;28;20043;-63
2024/02/14 02:17:27;;;;;;;12.55;2.30;;;11.60;99.90;;;;;;5107269;28;20059;-62
2024/02/14 02:19:54;;;;;;;17.58;2.83;;;11.60;99.90;;;;;;5095419;28;20044;-63
2024/02/14 02:22:21;;;;;;;11.38;2.20;;;11.60;99.90;;;;;;5106312;28;20063;-63
2024/02/14 02:24:48;;;;;;;22.35;4.13;;;11.60;99.90;;;;;;5097833;28;20054;-63
2024/02/14 02:27:16;;;;;;;11.13;2.13;;;11.60;99.90;;;;;;5105046;28;20052;-63
2024/02/14 02:29:43;;;;;;;13.55;2.38;;;11.70;99.90;;;;;;5097821;28;20085;-63
2024/02/14 02:32:10;;;;;;;10.70;1.98;;;11.70;99.90;;;;;;5105470;28;20082;-63
2024/02/14 02:34:38;;;;;;;12.38;2.05;;;11.70;99.90;;;;;;5101612;28;20044;-62
2024/02/14 02:37:07;;;;;;;10.15;2.65;;;11.70;99.90;;;;;;5095240;28;20052;-63
2024/02/14 02:39:35;;;;;;;10.98;1.92;;;11.80;99.90;;;;;;5104645;28;20309;-63
2024/02/14 02:42:03;;;;;;;5.13;1.40;;;11.80;99.90;;;;;;5102005;28;20052;-63
2024/02/14 02:44:31;;;;;;;10.57;1.70;;;11.80;99.90;;;;;;5101368;28;20044;-63
2024/02/14 02:46:58;;;;;;;6.82;1.80;;;11.90;99.90;;;;;;5097963;28;20067;-63
2024/02/14 02:49:25;;;;;;;7.93;2.15;;;11.90;99.90;;;;;;5101516;28;20040;-63
2024/02/14 02:51:52;;;;;;;9.52;2.65;;;11.90;99.90;;;;;;5094138;28;20505;-62
2024/02/14 02:54:19;;;;;;;8.70;1.77;;;11.90;99.90;;;;;;5088620;28;20047;-62
2024/02/14 02:56:45;;;;;;;8.27;2.78;;;12.00;99.90;;;;;;5089215;28;20089;-61
2024/02/14 02:59:13;;;;;;;8.77;1.80;;;12.00;99.90;;;;;;5101615;28;20048;-62
2024/02/14 03:01:40;;;;;;;12.00;1.80;;;12.00;99.90;;;;;;5096413;28;20048;-62
2024/02/14 03:04:08;;;;;;;6.70;1.20;;;12.00;99.90;;;;;;5100343;28;20120;-62
2024/02/14 03:06:34;;;;;;;8.02;1.90;;;12.00;99.90;;;;;;5097115;28;20069;-62
2024/02/14 03:09:02;;;;;;;10.95;2.60;;;12.00;99.90;;;;;;5097702;28;20131;-63
2024/02/14 03:11:28;;;;;;;7.22;1.27;;;12.00;99.90;;;;;;5102280;28;20093;-63
2024/02/14 03:13:55;;;;;;;6.18;1.30;;;12.00;99.90;;;;;;5105226;28;20400;-62
2024/02/14 03:16:24;;;;;;;8.85;1.38;;;12.10;99.90;;;;;;5097482;28;20051;-63
2024/02/14 03:18:51;;;;;;;4.45;0.93;;;12.00;99.90;;;;;;5095724;28;20050;-62
2024/02/14 03:21:18;;;;;;;5.82;1.23;;;12.00;99.90;;;;;;5094654;28;20055;-63
2024/02/14 03:23:46;;;;;;;7.43;2.30;;;12.00;99.90;;;;;;5099250;28;20063;-62
2024/02/14 03:26:13;;;;;;;4.30;1.00;;;12.00;99.90;;;;;;5095911;28;20048;-63
2024/02/14 03:28:40;;;;;;;5.88;1.27;;;12.10;99.90;;;;;;5098571;28;20054;-63
2024/02/14 03:31:07;;;;;;;2.10;0.75;;;12.10;99.90;;;;;;5103338;28;20596;-62
2024/02/14 03:33:33;;;;;;;4.90;0.90;;;12.10;99.90;;;;;;5101701;28;20062;-62
2024/02/14 03:36:00;;;;;;;1.58;0.80;;;12.10;99.90;;;;;;5095219;28;20664;-62
2024/02/14 03:38:28;;;;;;;6.00;0.70;;;12.10;99.90;;;;;;5104438;28;20051;-62
2024/02/14 03:40:54;;;;;;;8.20;1.10;;;12.10;99.90;;;;;;5087443;28;20062;-62
2024/02/14 03:43:23;;;;;;;5.15;0.77;;;12.10;99.90;;;;;;5095769;28;20733;-62
2024/02/14 03:45:54;;;;;;;4.93;1.40;;;12.10;99.90;;;;;;5103137;28;20059;-63
2024/02/14 03:48:21;;;;;;;6.93;1.17;;;12.00;99.90;;;;;;5102373;28;20313;-63
2024/02/14 03:50:49;;;;;;;5.35;1.33;;;12.10;99.90;;;;;;5105656;28;20152;-63
2024/02/14 03:53:17;;;;;;;4.72;1.02;;;12.10;99.90;;;;;;5099128;28;20062;-63
2024/02/14 03:58:13;;;;;;;3.88;0.90;;;12.00;99.90;;;;;;5086510;22;20097;-68
2024/02/14 04:00:40;;;;;;;6.13;1.58;;;12.00;99.90;;;;;;5106058;28;20055;-67
2024/02/14 04:03:07;;;;;;;4.28;0.90;;;12.00;99.90;;;;;;5102453;28;20122;-68
2024/02/14 04:05:34;;;;;;;4.43;0.98;;;12.10;99.90;;;;;;5096775;28;20166;-68
2024/02/14 04:08:01;;;;;;;3.22;0.88;;;12.00;99.90;;;;;;5081479;28;20117;-67
2024/02/14 04:10:28;;;;;;;6.93;1.13;;;12.00;99.90;;;;;;5085417;28;20054;-68
2024/02/14 04:12:55;;;;;;;6.63;0.80;;;12.00;99.90;;;;;;5080962;28;20043;-68
2024/02/14 04:15:22;;;;;;;6.82;1.48;;;12.00;99.90;;;;;;5091035;28;20047;-68
2024/02/14 04:17:50;;;;;;;4.65;1.20;;;11.90;99.90;;;;;;5105259;28;20082;-68
2024/02/14 04:20:17;;;;;;;5.07;1.13;;;12.00;99.90;;;;;;5105342;28;20054;-67
2024/02/14 04:22:44;;;;;;;6.32;1.38;;;12.00;99.90;;;;;;5096401;28;20044;-68
2024/02/14 04:25:12;;;;;;;9.07;1.17;;;12.10;99.90;;;;;;5099817;28;20051;-68
2024/02/14 04:27:39;;;;;;;3.78;1.50;;;12.00;99.90;;;;;;5098862;28;20435;-68
2024/02/14 04:30:06;;;;;;;6.60;1.17;;;12.00;99.90;;;;;;5103343;28;20050;-67
2024/02/14 04:32:33;;;;;;;6.80;1.38;;;12.10;99.90;;;;;;5104897;28;20040;-67
2024/02/14 04:35:01;;;;;;;3.72;1.00;;;12.10;99.90;;;;;;5093532;28;20491;-67
2024/02/14 04:37:29;;;;;;;7.57;1.65;;;12.10;99.90;;;;;;5104403;28;20055;-67
2024/02/14 04:39:56;;;;;;;2.08;0.63;;;12.10;99.90;;;;;;5097888;28;20047;-68
2024/02/14 04:42:23;;;;;;;2.28;0.70;;;12.10;99.90;;;;;;5095521;28;20652;-68
2024/02/14 04:44:50;;;;;;;2.53;0.70;;;12.10;99.90;;;;;;5097877;28;20048;-68
2024/02/14 04:47:16;;;;;;;3.00;0.70;;;12.10;99.90;;;;;;5098189;28;20058;-69
2024/02/14 04:49:43;;;;;;;3.65;0.93;;;12.00;99.90;;;;;;5099516;28;20629;-68
2024/02/14 04:52:10;;;;;;;8.75;3.13;;;12.00;99.90;;;;;;5090860;28;20047;-68
2024/02/14 04:54:37;;;;;;;2.60;0.95;;;12.00;99.90;;;;;;5096992;28;20048;-68
2024/02/14 04:57:04;;;;;;;1.90;0.70;;;12.10;99.90;;;;;;5095192;28;20515;-67
2024/02/14 04:59:31;;;;;;;2.50;0.80;;;12.00;99.90;;;;;;5095883;28;20063;-68
2024/02/14 05:01:58;;;;;;;4.95;1.55;;;12.10;99.90;;;;;;5098541;28;20067;-68
2024/02/14 05:04:25;;;;;;;3.17;0.90;;;12.10;99.90;;;;;;5081934;28;20308;-68
2024/02/14 05:06:52;;;;;;;4.43;1.13;;;12.10;99.90;;;;;;5104314;28;20127;-68
2024/02/14 05:09:24;;;;;;;5.35;0.93;;;12.00;99.90;;;;;;5093990;28;20050;-68
2024/02/14 05:11:51;;;;;;;2.03;1.00;;;12.00;99.90;;;;;;5102314;28;20051;-69
2024/02/14 05:14:18;;;;;;;8.60;1.95;;;12.00;99.90;;;;;;5073007;28;20051;-68
2024/02/14 05:16:46;;;;;;;1.42;0.52;;;12.00;99.90;;;;;;5100717;28;20048;-68
2024/02/14 05:19:12;;;;;;;3.70;1.00;;;12.00;99.90;;;;;;5097847;28;20040;-68
2024/02/14 05:21:40;;;;;;;1.67;0.63;;;12.00;99.90;;;;;;5092541;28;20044;-68
2024/02/14 05:24:07;;;;;;;4.28;1.00;;;12.00;99.90;;;;;;5093846;28;20043;-69
2024/02/14 05:26:35;;;;;;;1.77;0.85;;;12.00;99.90;;;;;;5083845;28;20162;-67
2024/02/14 05:29:02;;;;;;;3.38;0.80;;;11.90;99.90;;;;;;5097693;28;20051;-67
2024/02/14 05:31:44;;;;;;;2.55;1.27;;;11.90;99.90;;;;;;5100409;28;20044;-68
2024/02/14 05:34:10;;;;;;;2.67;0.63;;;11.90;99.90;;;;;;5098033;28;20042;-67
2024/02/14 05:36:38;;;;;;;2.72;0.70;;;11.90;99.90;;;;;;5102374;28;20054;-68
2024/02/14 05:39:06;;;;;;;2.30;0.90;;;11.90;99.90;;;;;;5103387;28;20044;-68
2024/02/14 05:41:32;;;;;;;4.13;0.70;;;11.90;99.90;;;;;;5103541;28;20091;-68
2024/02/14 05:43:59;;;;;;;2.13;0.70;;;11.90;99.90;;;;;;5100574;28;20531;-68
2024/02/14 05:46:27;;;;;;;1.98;0.70;;;11.90;99.90;;;;;;5097535;28;20051;-68
2024/02/14 05:48:54;;;;;;;4.68;0.75;;;11.90;99.90;;;;;;5098236;28;20071;-68
2024/02/14 05:51:21;;;;;;;2.15;0.80;;;11.80;99.90;;;;;;5098932;28;20046;-68
2024/02/14 05:53:48;;;;;;;2.92;0.70;;;11.80;99.90;;;;;;5081239;28;20044;-68
2024/02/14 05:56:15;;;;;;;8.25;1.23;;;12.00;99.90;;;;;;5080461;28;20143;-68
2024/02/14 05:58:42;;;;;;;4.18;1.17;;;11.80;99.90;;;;;;5102166;28;20071;-68
2024/02/14 06:01:09;;;;;;;2.25;0.75;;;11.80;99.90;;;;;;5094817;28;20036;-68
2024/02/14 06:03:36;;;;;;;4.00;0.90;;;11.80;99.90;;;;;;5092568;28;20047;-68
2024/02/14 06:06:03;;;;;;;5.43;1.00;;;11.80;99.90;;;;;;5101544;28;20082;-68
2024/02/14 06:08:30;;;;;;;2.10;1.00;;;11.80;99.90;;;;;;5098955;28;20069;-68
2024/02/14 06:10:57;;;;;;;3.58;0.80;;;11.80;99.90;;;;;;5079911;28;20061;-68
2024/02/14 06:13:24;;;;;;;4.35;1.20;;;11.80;99.90;;;;;;5094588;28;20098;-68
2024/02/14 06:15:50;;;;;;;3.83;0.95;;;11.80;99.90;;;;;;5092474;28;20059;-68
2024/02/14 06:18:17;;;;;;;4.05;0.90;;;11.80;99.90;;;;;;5103682;28;20453;-68
2024/02/14 06:20:45;;;;;;;3.22;1.65;;;11.80;99.90;;;;;;5081950;28;20459;-68
2024/02/14 06:23:12;;;;;;;3.65;1.20;;;11.80;99.90;;;;;;5092638;28;20852;-66
2024/02/14 06:25:39;;;;;;;4.55;1.48;;;11.80;99.90;;;;;;5100250;28;20484;-68
2024/02/14 06:28:06;;;;;;;5.45;1.10;;;11.80;99.90;;;;;;5078359;28;20499;-68
2024/02/14 06:30:33;;;;;;;3.22;0.80;;;11.80;99.90;;;;;;5080155;28;20060;-68
2024/02/14 06:33:00;;;;;;;1.92;0.85;;;11.80;99.90;;;;;;5077429;28;20069;-69
2024/02/14 06:35:29;;;;;;;6.30;1.17;;;11.90;99.90;;;;;;5095621;28;20222;-69
2024/02/14 06:37:57;;;;;;;1.60;1.10;;;11.80;99.90;;;;;;5096192;28;20126;-68
2024/02/14 06:40:30;;;;;;;3.15;0.52;;;11.90;99.90;;;;;;5096067;28;20040;-68
2024/02/14 06:42:59;;;;;;;2.35;1.00;;;11.90;99.90;;;;;;5085628;28;20317;-68
2024/02/14 06:45:27;;;;;;;2.75;0.60;;;11.90;99.90;;;;;;5102931;28;20040;-68
2024/02/14 06:47:54;;;;;;;3.40;0.82;;;11.90;99.90;;;;;;5096538;28;20040;-68
2024/02/14 06:50:21;;;;;;;2.25;1.17;;;11.90;99.90;;;;;;5092078;28;20388;-67
2024/02/14 06:52:48;;;;;;;7.05;0.70;;;11.90;99.90;;;;;;5101372;28;20488;-67
2024/02/14 06:55:15;;;;;;;0.75;0.45;;;11.90;99.90;;;;;;5104392;28;20127;-67
2024/02/14 06:57:42;;;;;;;0.32;0.25;;;12.00;99.90;;;;;;5101818;28;20063;-67
2024/02/14 07:00:10;;;;;;;0.57;0.40;;;11.80;99.90;;;;;;5101455;28;20097;-68
2024/02/14 07:02:37;;;;;;;2.65;0.70;;;11.80;99.90;;;;;;5079978;28;20059;-68
2024/02/14 07:05:07;;;;;;;2.05;0.40;;;11.80;99.90;;;;;;5103914;28;20099;-70
2024/02/14 07:07:34;;;;;;;2.25;0.40;;;11.70;99.90;;;;;;5103225;28;20043;-68
2024/02/14 07:10:01;;;;;;;1.42;0.50;;;11.80;99.90;;;;;;5082070;28;20095;-68
2024/02/14 07:12:30;;;;;;;2.72;0.45;;;11.70;99.90;;;;;;5101239;28;20051;-69
2024/02/14 07:14:57;;;;;;;0.63;0.40;;;11.70;99.90;;;;;;5099427;28;20043;-69
2024/02/14 07:17:24;;;;;;;1.95;0.57;;;11.70;99.90;;;;;;5095506;28;20142;-68
2024/02/14 07:19:51;;;;;;;1.25;0.60;;;11.80;99.90;;;;;;5096908;28;20071;-68
2024/02/14 07:22:21;;;;;;;1.50;0.40;;;11.80;99.90;;;;;;5099628;28;20054;-68
2024/02/14 07:24:48;;;;;;;6.32;0.98;;;11.80;99.90;;;;;;5104355;28;20070;-68
2024/02/14 07:27:15;;;;;;;1.88;0.70;;;11.80;99.90;;;;;;5098298;28;20052;-68
2024/02/14 07:29:42;;;;;;;3.30;1.17;;;11.80;99.90;;;;;;5080621;28;20474;-68
2024/02/14 07:32:09;;;;;;;1.83;0.50;;;11.80;99.90;;;;;;5106249;28;20128;-69
2024/02/14 07:34:39;;;;;;;0.93;0.50;;;11.80;99.90;;;;;;5104245;28;20039;-68
2024/02/14 07:37:06;;;;;;;2.97;0.43;;;11.90;99.90;;;;;;5100468;28;20044;-68
2024/02/14 07:39:34;;;;;;;0.47;0.40;;;11.90;99.90;;;;;;5099749;28;20066;-67
2024/02/14 07:42:05;;;;;;;0.75;0.40;;;11.90;99.90;;;;;;5065390;28;20162;-70
2024/02/14 07:44:35;;;;;;;0.52;0.43;;;11.90;99.90;;;;;;5103274;28;20049;-71
2024/02/14 07:47:02;;;;;;;0.55;0.32;;;11.90;99.90;;;;;;5100844;28;20590;-70
2024/02/14 07:49:32;;;;;;;1.45;0.40;;;11.90;99.90;;;;;;5098384;28;20361;-68
2024/02/14 07:51:59;;;;;;;0.95;0.60;;;11.90;99.90;;;;;;5099617;28;20055;-69
2024/02/14 07:54:28;;;;;;;0.88;0.43;;;12.00;99.90;;;;;;5101398;28;20135;-69
2024/02/14 07:56:55;;;;;;;0.55;0.55;;;12.00;99.90;;;;;;5101537;28;20122;-68
2024/02/14 07:59:22;;;;;;;0.60;0.60;;;12.00;99.90;;;;;;5080975;28;20052;-69
2024/02/14 08:01:49;;;;;;;5.10;0.85;;;12.00;99.90;;;;;;5097856;28;20082;-69
2024/02/14 08:04:16;;;;;;;0.45;0.38;;;12.10;99.90;;;;;;5097842;28;20072;-69
2024/02/14 08:06:46;;;;;;;1.48;0.80;;;12.10;99.90;;;;;;5083110;28;20047;-68
2024/02/14 08:09:13;;;;;;;1.20;0.43;;;12.10;99.90;;;;;;5102799;28;20101;-69
2024/02/14 08:11:40;;;;;;;3.92;0.55;;;12.20;99.90;;;;;;5100214;28;20044;-69
2024/02/14 08:14:07;;;;;;;1.23;0.40;;;12.10;99.90;;;;;;5094786;28;20121;-69
2024/02/14 08:16:34;;;;;;;1.08;0.52;;;12.20;99.90;;;;;;5070682;28;20081;-69
2024/02/14 08:19:02;;;;;;;0.70;0.40;;;12.20;99.90;;;;;;5094891;28;20056;-66
2024/02/14 08:21:30;;;;;;;0.95;0.38;;;12.20;99.90;;;;;;5089476;28;20043;-67
2024/02/14 08:24:01;;;;;;;3.00;0.70;;;12.20;99.90;;;;;;5099504;28;20044;-68
2024/02/14 08:26:28;;;;;;;1.05;0.50;;;12.30;99.90;;;;;;5102338;28;20074;-68
2024/02/14 08:28:56;;;;;;;0.90;0.52;;;12.30;99.90;;;;;;5102543;28;20057;-68
2024/02/14 08:31:23;;;;;;;0.70;0.50;;;12.30;99.90;;;;;;5103715;28;20742;-70
2024/02/14 08:33:50;;;;;;;0.75;0.55;;;12.30;99.90;;;;;;5076998;28;20048;-69
2024/02/14 08:36:18;;;;;;;2.65;0.57;;;12.30;99.90;;;;;;5084480;28;20741;-68
2024/02/14 08:38:46;;;;;;;1.23;0.60;;;12.30;99.90;;;;;;5083242;28;20063;-68
2024/02/14 08:41:14;;;;;;;3.78;0.75;;;12.30;99.90;;;;;;5065106;28;20422;-68
2024/02/14 08:43:41;;;;;;;2.85;0.80;;;12.30;99.90;;;;;;5097800;28;20527;-69
2024/02/14 08:46:13;;;;;;;0.88;0.40;;;12.40;99.90;;;;;;5099496;28;20087;-68
2024/02/14 08:48:45;;;;;;;3.42;0.65;;;12.30;99.90;;;;;;5098274;28;20066;-68
2024/02/14 08:51:15;;;;;;;3.00;0.77;;;12.30;99.90;;;;;;5102539;28;20535;-68
2024/02/14 08:53:44;;;;;;;1.27;0.70;;;12.40;99.90;;;;;;5073632;28;20054;-69
2024/02/14 08:56:13;;;;;;;2.45;0.57;;;12.40;99.90;;;;;;5083817;28;20063;-69
2024/02/14 08:58:40;;;;;;;2.00;0.63;;;12.40;99.90;;;;;;5084667;28;20330;-69
2024/02/14 09:01:08;;;;;;;1.73;0.77;;;12.40;99.90;;;;;;5102842;28;20557;-69
2024/02/14 09:03:47;;;;;;;1.90;0.63;;;12.40;99.90;;;;;;5081087;28;20051;-69
2024/02/14 09:06:17;;;;;;;3.90;0.73;;;12.40;99.90;;;;;;5076828;28;20055;-69
2024/02/14 09:08:44;;;;;;;1.55;0.68;;;12.50;99.90;;;;;;5096736;28;20039;-70
2024/02/14 09:11:12;;;;;;;1.50;0.50;;;12.50;99.90;;;;;;5081326;28;20047;-69
2024/02/14 09:13:42;;;;;;;3.08;0.88;;;12.50;99.90;;;;;;5099998;28;20074;-68
2024/02/14 09:16:10;;;;;;;1.35;0.52;;;12.60;99.90;;;;;;5082238;28;20096;-68
2024/02/14 09:18:37;;;;;;;1.10;0.60;;;12.60;99.90;;;;;;5101666;28;20044;-69
2024/02/14 09:21:05;;;;;;;12.90;1.17;;;12.60;99.90;;;;;;5101803;28;20475;-68
2024/02/14 09:23:33;;;;;;;0.88;0.38;;;12.60;99.90;;;;;;5102168;28;20048;-68
2024/02/14 09:26:01;;;;;;;0.68;0.30;;;12.60;99.90;;;;;;5096585;28;20328;-67
2024/02/14 09:28:28;;;;;;;0.40;0.20;;;12.60;99.90;;;;;;5092737;28;20716;-68
2024/02/14 09:30:55;;;;;;;1.80;1.52;;;12.60;99.90;;;;;;5077966;28;20047;-68
2024/02/14 09:33:22;;;;;;;4.03;0.30;;;12.50;99.90;;;;;;5102492;28;20040;-66
2024/02/14 09:35:51;;;;;;;2.33;0.50;;;12.50;99.90;;;;;;5095284;28;20427;-66
2024/02/14 09:38:18;;;;;;;0.80;0.30;;;12.40;99.90;;;;;;5093231;28;20726;-68
2024/02/14 09:40:45;;;;;;;0.65;0.55;;;12.50;99.90;;;;;;5097312;28;20051;-67
2024/02/14 09:43:35;;;;;;;0.52;0.30;;;12.40;99.90;;;;;;5093599;28;20109;-66
2024/02/14 09:46:03;;;;;;;0.20;0.20;;;12.40;99.90;;;;;;5079501;28;20040;-66
2024/02/14 09:48:30;;;;;;;1.88;0.22;;;12.30;99.90;;;;;;5094766;28;20509;-67
2024/02/14 09:50:57;;;;;;;0.38;0.32;;;12.30;99.90;;;;;;5072500;28;20039;-67
2024/02/14 09:53:24;;;;;;;1.08;0.43;;;12.30;99.90;;;;;;5098617;28;20055;-66
2024/02/14 09:55:52;;;;;;;4.75;0.82;;;12.30;99.90;;;;;;5078886;28;20066;-68
2024/02/14 09:58:19;;;;;;;1.42;0.40;;;12.30;99.90;;;;;;5072160;28;20047;-67
2024/02/14 10:00:46;;;;;;;0.90;0.30;;;12.30;99.90;;;;;;5095145;28;20096;-68
2024/02/14 10:03:13;;;;;;;1.35;0.30;;;12.30;99.90;;;;;;5100772;28;20048;-67
2024/02/14 10:05:40;;;;;;;2.92;0.60;;;12.30;99.90;;;;;;5103126;28;20048;-68
2024/02/14 10:08:08;;;;;;;1.08;0.60;;;12.30;99.90;;;;;;5100692;28;20051;-67
2024/02/14 10:10:35;;;;;;;0.70;0.50;;;12.30;99.90;;;;;;5082956;28;20059;-67
2024/02/14 10:13:06;;;;;;;2.30;1.17;;;12.30;99.90;;;;;;5098623;28;20051;-66
2024/02/14 10:15:33;;;;;;;0.90;0.57;;;12.30;99.90;;;;;;5099017;28;20121;-66
2024/02/14 10:18:01;;;;;;;1.23;0.40;;;12.30;99.90;;;;;;5097356;28;20048;-67
2024/02/14 10:20:30;;;;;;;0.30;0.30;;;12.30;99.90;;;;;;5094893;28;20048;-67
2024/02/14 10:23:02;;;;;;;1.20;0.30;;;12.30;99.90;;;;;;5104311;28;20108;-66
2024/02/14 10:25:29;;;;;;;1.17;0.40;;;12.30;99.90;;;;;;5102202;28;20044;-67
2024/02/14 10:27:56;;;;;;;2.92;0.47;;;12.30;99.90;;;;;;5099770;28;20055;-67
2024/02/14 10:30:23;;;;;;;0.52;0.40;;;12.30;99.90;;;;;;5104599;28;20067;-66
2024/02/14 10:32:50;;;;;;;0.88;0.50;;;12.30;99.90;;;;;;5100903;28;20454;-66
2024/02/14 10:35:17;;;;;;;0.30;0.30;;;12.20;99.90;;;;;;5082741;28;20170;-67
2024/02/14 10:37:44;;;;;;;0.43;0.30;;;12.30;99.90;;;;;;5082772;28;20071;-66
2024/02/14 10:40:11;;;;;;;0.50;0.32;;;12.30;99.90;;;;;;5083167;28;20054;-67
2024/02/14 10:42:38;;;;;;;0.45;0.30;;;12.30;99.90;;;;;;5067529;28;20044;-66
2024/02/14 10:45:05;;;;;;;3.88;0.50;;;12.30;99.90;;;;;;5103867;28;20047;-66
2024/02/14 10:47:35;;;;;;;1.77;0.40;;;12.30;99.90;;;;;;5083277;28;20040;-66
2024/02/14 10:50:05;;;;;;;1.05;0.47;;;12.30;99.90;;;;;;5082613;28;20051;-67
2024/02/14 10:52:33;;;;;;;0.90;0.50;;;12.30;99.90;;;;;;5100010;28;20127;-67
2024/02/14 10:55:03;;;;;;;0.20;0.20;;;12.30;99.90;;;;;;5085689;28;20508;-67
2024/02/14 10:57:31;;;;;;;0.85;0.40;;;12.30;99.90;;;;;;5084361;28;20047;-66
2024/02/14 11:00:07;;;;;;;0.90;0.30;;;12.30;99.90;;;;;;5084998;28;20048;-66
2024/02/14 11:02:34;;;;;;;0.70;0.32;;;12.40;99.90;;;;;;5083084;28;20043;-66
2024/02/14 11:05:02;;;;;;;2.28;0.30;;;12.40;99.90;;;;;;5085259;28;20052;-66
2024/02/14 11:07:29;;;;;;;0.95;0.50;;;12.50;99.90;;;;;;5105125;28;20051;-66
2024/02/14 11:10:06;;;;;;;0.40;0.40;;;12.50;99.90;;;;;;5104648;28;20051;-67
2024/02/14 11:12:38;;;;;;;1.20;0.55;;;12.50;99.90;;;;;;5097858;28;20054;-67
2024/02/14 11:15:22;;;;;;;1.15;0.82;;;12.60;99.90;;;;;;5103793;28;20043;-66
2024/02/14 11:17:51;;;;;;;;;;;12.70;99.90;;;;;;5103233;28;20047;-67
2024/02/14 11:20:20;;;;;;;2.65;0.80;;;12.70;99.90;;;;;;5076276;28;19923;-67
2024/02/14 11:22:55;;;;;;;1.88;0.47;;;12.70;99.90;;;;;;5094894;28;20044;-67
2024/02/14 11:25:31;;;;;;;3.10;0.52;;;12.80;99.90;;;;;;5101513;28;20047;-67
2024/02/14 11:27:58;;;;;;;1.17;0.60;;;12.80;99.90;;;;;;5085188;28;20051;-67
2024/02/14 11:30:35;;;;;;;3.75;0.80;;;12.90;99.90;;;;;;5101354;28;20051;-67
2024/02/14 11:33:21;;;;;;;6.32;0.68;;;12.90;99.90;;;;;;5099609;28;20048;-66
2024/02/14 11:35:56;;;;;;;2.03;0.73;;;13.00;99.90;;;;;;5104823;28;20407;-66
2024/02/14 11:38:26;;;;;;;0.70;0.50;;;13.00;99.90;;;;;;5103641;28;20407;-67
2024/02/14 11:40:56;;;;;;;2.78;1.08;;;13.00;99.90;;;;;;5100107;28;20047;-67
2024/02/14 11:43:24;;;;;;;2.33;0.75;;;13.00;99.90;;;;;;5103510;28;20411;-68
2024/02/14 11:45:52;;;;;;;1.65;0.90;;;13.00;99.90;;;;;;5101879;28;20116;-67
2024/02/14 11:48:23;;;;;;;5.18;0.88;;;13.10;99.90;;;;;;5101138;28;20439;-66
2024/02/14 11:50:52;;;;;;;2.22;0.80;;;13.10;99.90;;;;;;5083137;28;20048;-66
2024/02/14 11:53:19;;;;;;;4.07;1.02;;;13.10;99.90;;;;;;5103438;28;20051;-66
2024/02/14 11:55:49;;;;;;;2.88;1.02;;;13.10;99.90;;;;;;5076004;28;20075;-68
2024/02/14 11:58:16;;;;;;;5.53;1.20;;;13.10;99.90;;;;;;5104270;28;20137;-67
2024/02/14 12:00:44;;;;;;;4.97;1.52;;;13.20;99.90;;;;;;5085723;28;20495;-66
2024/02/14 12:03:16;;;;;;;4.45;1.15;;;13.20;99.90;;;;;;5099113;28;20093;-67
2024/02/14 12:05:44;;;;;;;6.40;1.48;;;13.20;99.90;;;;;;5078172;28;20434;-67
2024/02/14 12:08:11;;;;;;;2.55;0.95;;;13.30;99.90;;;;;;5075225;28;20445;-67
2024/02/14 12:10:38;;;;;;;3.13;1.05;;;13.30;99.90;;;;;;5086248;28;20039;-66
2024/02/14 12:13:17;;;;;;;4.10;0.93;;;13.30;99.90;;;;;;5107522;28;20070;-67
2024/02/14 12:15:45;;;;;;;2.28;0.82;;;13.30;99.90;;;;;;5083968;28;20051;-66
2024/02/14 12:18:13;;;;;;;2.55;0.80;;;13.40;99.90;;;;;;5100313;28;20278;-67
2024/02/14 12:20:41;;;;;;;4.18;1.15;;;13.50;99.90;;;;;;5088444;28;20042;-66
2024/02/14 12:23:09;;;;;;;2.50;1.23;;;13.50;99.90;;;;;;5086136;28;20051;-66
2024/02/14 12:25:36;;;;;;;1.90;0.70;;;13.50;99.90;;;;;;5089934;28;20087;-67
2024/02/14 12:28:03;;;;;;;3.72;1.05;;;13.50;99.90;;;;;;5104887;28;20051;-67
2024/02/14 12:30:46;;;;;;;3.22;0.88;;;13.50;99.90;;;;;;5085109;28;20047;-68
2024/02/14 12:33:13;;;;;;;8.45;1.20;;;13.60;99.90;;;;;;5103251;28;20042;-68
2024/02/14 12:35:42;;;;;;;1.17;0.50;;;13.60;99.90;;;;;;5100326;28;20117;-68
2024/02/14 12:38:09;;;;;;;6.10;1.15;;;13.70;99.90;;;;;;5100173;28;20040;-68
2024/02/14 12:40:36;;;;;;;2.08;0.80;;;13.70;99.90;;;;;;5106232;28;20048;-66
2024/02/14 12:43:05;;;;;;;2.42;0.68;;;13.80;99.90;;;;;;5102944;28;20450;-67
2024/02/14 12:45:32;;;;;;;4.93;1.10;;;13.70;99.90;;;;;;5086289;28;20143;-68
2024/02/14 12:47:59;;;;;;;8.63;1.23;;;13.80;99.90;;;;;;5104521;28;20428;-67
2024/02/14 12:50:26;;;;;;;1.70;0.70;;;13.80;99.90;;;;;;5088026;28;20135;-66
2024/02/14 12:52:53;;;;;;;2.45;0.77;;;13.90;99.90;;;;;;5101260;28;20515;-67